sensor_id;sensor_type;location;lat;lon;timestamp;pressure;altitude;pressure_sealevel;temperature;humidity
28510;BME280;15723;55.684;37.928;2023-03-26T00:00:40;98711.63;;;9.12;82.93
28510;BME280;15723;55.684;37.928;2023-03-26T00:03:12;98712.56;;;9.35;82.29
28510;BME280;15723;55.684;37.928;2023-03-26T00:05:39;98723.69;;;9.19;82.37
28510;BME280;15723;55.684;37.928;2023-03-26T00:08:06;98717.31;;;9.20;82.55
28510;BME280;15723;55.684;37.928;2023-03-26T00:10:36;98715.84;;;9.27;81.83
28510;BME280;15723;55.684;37.928;2023-03-26T00:13:03;98717.91;;;9.13;82.58
28510;BME280;15723;55.684;37.928;2023-03-26T00:15:31;98713.59;;;9.10;83.01
28510;BME280;15723;55.684;37.928;2023-03-26T00:17:58;98716.69;;;9.28;81.85
28510;BME280;15723;55.684;37.928;2023-03-26T00:20:25;98709.50;;;9.04;82.55
28510;BME280;15723;55.684;37.928;2023-03-26T00:22:52;98708.31;;;9.20;82.33
28510;BME280;15723;55.684;37.928;2023-03-26T00:25:22;98724.38;;;8.99;82.89
28510;BME280;15723;55.684;37.928;2023-03-26T00:27:49;98717.81;;;8.90;84.01
28510;BME280;15723;55.684;37.928;2023-03-26T00:30:15;98722.47;;;8.88;83.82
28510;BME280;15723;55.684;37.928;2023-03-26T00:32:41;98724.06;;;9.15;83.15
28510;BME280;15723;55.684;37.928;2023-03-26T00:35:08;98723.78;;;9.06;83.33
28510;BME280;15723;55.684;37.928;2023-03-26T00:37:34;98721.19;;;9.05;83.28
28510;BME280;15723;55.684;37.928;2023-03-26T00:40:00;98722.09;;;9.17;83.00
28510;BME280;15723;55.684;37.928;2023-03-26T00:42:31;98731.16;;;9.04;83.63
28510;BME280;15723;55.684;37.928;2023-03-26T00:44:58;98730.09;;;9.18;82.54
28510;BME280;15723;55.684;37.928;2023-03-26T00:47:24;98722.53;;;9.34;82.25
28510;BME280;15723;55.684;37.928;2023-03-26T00:49:50;98719.00;;;9.10;83.23
28510;BME280;15723;55.684;37.928;2023-03-26T00:52:16;98721.09;;;9.06;83.88
28510;BME280;15723;55.684;37.928;2023-03-26T00:54:44;98712.78;;;9.32;82.75
28510;BME280;15723;55.684;37.928;2023-03-26T00:57:10;98710.84;;;8.99;83.79
28510;BME280;15723;55.684;37.928;2023-03-26T00:59:38;98710.63;;;9.13;83.76
28510;BME280;15723;55.684;37.928;2023-03-26T01:02:05;98709.91;;;9.11;83.91
28510;BME280;15723;55.684;37.928;2023-03-26T01:04:32;98704.09;;;9.04;83.54
28510;BME280;15723;55.684;37.928;2023-03-26T01:07:15;98704.84;;;9.06;83.19
28510;BME280;15723;55.684;37.928;2023-03-26T01:09:44;98695.09;;;8.93;83.45
28510;BME280;15723;55.684;37.928;2023-03-26T01:12:17;98691.94;;;8.75;84.24
28510;BME280;15723;55.684;37.928;2023-03-26T01:14:45;98685.56;;;8.87;83.18
28510;BME280;15723;55.684;37.928;2023-03-26T01:17:12;98680.63;;;9.16;82.37
28510;BME280;15723;55.684;37.928;2023-03-26T01:19:47;98690.47;;;9.28;81.40
28510;BME280;15723;55.684;37.928;2023-03-26T01:22:20;98681.28;;;9.42;81.27
28510;BME280;15723;55.684;37.928;2023-03-26T01:24:46;98679.81;;;9.38;81.29
28510;BME280;15723;55.684;37.928;2023-03-26T01:27:28;98693.97;;;9.42;81.14
28510;BME280;15723;55.684;37.928;2023-03-26T01:30:00;98683.38;;;9.50;80.88
28510;BME280;15723;55.684;37.928;2023-03-26T01:37:28;98691.66;;;9.02;82.19
28510;BME280;15723;55.684;37.928;2023-03-26T01:39:58;98691.81;;;8.76;82.91
28510;BME280;15723;55.684;37.928;2023-03-26T01:42:48;98672.94;;;8.40;83.58
28510;BME280;15723;55.684;37.928;2023-03-26T01:45:18;98674.13;;;8.84;82.09
28510;BME280;15723;55.684;37.928;2023-03-26T01:47:46;98669.16;;;8.66;82.56
28510;BME280;15723;55.684;37.928;2023-03-26T01:50:13;98672.47;;;8.70;82.47
28510;BME280;15723;55.684;37.928;2023-03-26T01:52:39;98668.16;;;8.67;83.12
28510;BME280;15723;55.684;37.928;2023-03-26T01:55:05;98665.44;;;8.56;82.77
28510;BME280;15723;55.684;37.928;2023-03-26T02:05:25;98664.53;;;8.32;84.38
28510;BME280;15723;55.684;37.928;2023-03-26T02:07:59;98656.56;;;8.18;85.22
28510;BME280;15723;55.684;37.928;2023-03-26T02:10:32;98656.72;;;8.40;84.71
28510;BME280;15723;55.684;37.928;2023-03-26T02:12:59;98659.94;;;8.69;82.60
28510;BME280;15723;55.684;37.928;2023-03-26T02:15:26;98661.31;;;8.74;82.29
28510;BME280;15723;55.684;37.928;2023-03-26T02:17:52;98657.63;;;8.52;83.09
28510;BME280;15723;55.684;37.928;2023-03-26T02:20:21;98659.59;;;8.73;81.84
28510;BME280;15723;55.684;37.928;2023-03-26T02:22:47;98650.53;;;8.14;84.25
28510;BME280;15723;55.684;37.928;2023-03-26T02:25:17;98641.16;;;8.07;84.96
28510;BME280;15723;55.684;37.928;2023-03-26T02:27:45;98649.41;;;8.29;83.81
28510;BME280;15723;55.684;37.928;2023-03-26T02:30:15;98647.88;;;8.62;82.31
28510;BME280;15723;55.684;37.928;2023-03-26T02:32:44;98649.84;;;8.71;81.83
28510;BME280;15723;55.684;37.928;2023-03-26T02:35:10;98661.44;;;8.12;82.74
28510;BME280;15723;55.684;37.928;2023-03-26T02:37:38;98657.97;;;8.23;82.70
28510;BME280;15723;55.684;37.928;2023-03-26T02:40:14;98658.50;;;8.52;82.72
28510;BME280;15723;55.684;37.928;2023-03-26T02:42:42;98641.34;;;8.64;81.62
28510;BME280;15723;55.684;37.928;2023-03-26T02:45:09;98646.59;;;8.55;82.10
28510;BME280;15723;55.684;37.928;2023-03-26T02:47:55;98636.31;;;8.60;81.72
28510;BME280;15723;55.684;37.928;2023-03-26T02:50:48;98633.38;;;8.63;81.47
28510;BME280;15723;55.684;37.928;2023-03-26T02:53:33;98633.50;;;8.37;81.73
28510;BME280;15723;55.684;37.928;2023-03-26T02:56:19;98637.53;;;8.56;81.19
28510;BME280;15723;55.684;37.928;2023-03-26T02:59:01;98642.25;;;7.42;84.38
28510;BME280;15723;55.684;37.928;2023-03-26T03:01:27;98638.22;;;7.86;84.32
28510;BME280;15723;55.684;37.928;2023-03-26T03:03:56;98631.56;;;8.27;82.32
28510;BME280;15723;55.684;37.928;2023-03-26T03:06:33;98634.81;;;7.95;83.07
28510;BME280;15723;55.684;37.928;2023-03-26T03:08:59;98633.34;;;7.78;83.17
28510;BME280;15723;55.684;37.928;2023-03-26T03:11:39;98635.97;;;8.04;82.81
28510;BME280;15723;55.684;37.928;2023-03-26T03:14:06;98631.56;;;8.27;82.47
28510;BME280;15723;55.684;37.928;2023-03-26T03:16:33;98630.59;;;8.28;81.53
28510;BME280;15723;55.684;37.928;2023-03-26T03:19:04;98622.94;;;8.22;81.93
28510;BME280;15723;55.684;37.928;2023-03-26T03:21:36;98615.50;;;7.89;82.78
28510;BME280;15723;55.684;37.928;2023-03-26T03:24:02;98620.38;;;7.47;85.31
28510;BME280;15723;55.684;37.928;2023-03-26T03:26:33;98615.81;;;7.35;85.68
28510;BME280;15723;55.684;37.928;2023-03-26T03:29:13;98622.53;;;7.78;85.40
28510;BME280;15723;55.684;37.928;2023-03-26T03:31:40;98623.56;;;8.01;84.20
28510;BME280;15723;55.684;37.928;2023-03-26T03:34:14;98619.66;;;7.81;84.60
28510;BME280;15723;55.684;37.928;2023-03-26T03:36:46;98616.81;;;7.46;85.59
28510;BME280;15723;55.684;37.928;2023-03-26T03:39:29;98619.31;;;7.11;86.85
28510;BME280;15723;55.684;37.928;2023-03-26T03:41:55;98610.78;;;7.17;87.49
28510;BME280;15723;55.684;37.928;2023-03-26T03:44:21;98606.22;;;7.43;87.17
28510;BME280;15723;55.684;37.928;2023-03-26T03:46:48;98598.03;;;7.19;87.18
28510;BME280;15723;55.684;37.928;2023-03-26T03:49:20;98590.47;;;7.74;85.56
28510;BME280;15723;55.684;37.928;2023-03-26T03:51:46;98583.66;;;8.05;83.96
28510;BME280;15723;55.684;37.928;2023-03-26T03:54:27;98590.22;;;8.37;82.73
28510;BME280;15723;55.684;37.928;2023-03-26T03:57:04;98588.44;;;8.01;82.93
28510;BME280;15723;55.684;37.928;2023-03-26T03:59:47;98588.66;;;7.98;83.09
28510;BME280;15723;55.684;37.928;2023-03-26T04:02:15;98596.81;;;8.09;82.91
28510;BME280;15723;55.684;37.928;2023-03-26T04:05:03;98598.06;;;8.16;81.85
28510;BME280;15723;55.684;37.928;2023-03-26T04:07:47;98599.06;;;8.15;81.42
28510;BME280;15723;55.684;37.928;2023-03-26T04:10:36;98591.00;;;8.03;81.68
28510;BME280;15723;55.684;37.928;2023-03-26T04:13:15;98601.63;;;8.17;81.06
28510;BME280;15723;55.684;37.928;2023-03-26T04:16:07;98593.44;;;8.19;80.39
28510;BME280;15723;55.684;37.928;2023-03-26T04:18:34;98585.50;;;8.28;80.01
28510;BME280;15723;55.684;37.928;2023-03-26T04:21:08;98587.28;;;7.93;80.87
28510;BME280;15723;55.684;37.928;2023-03-26T04:23:34;98586.47;;;8.27;80.62
28510;BME280;15723;55.684;37.928;2023-03-26T04:26:22;98581.41;;;7.99;81.86
28510;BME280;15723;55.684;37.928;2023-03-26T04:29:06;98575.06;;;8.11;81.90
28510;BME280;15723;55.684;37.928;2023-03-26T04:31:37;98569.34;;;7.92;82.02
28510;BME280;15723;55.684;37.928;2023-03-26T04:34:05;98571.34;;;8.25;81.64
28510;BME280;15723;55.684;37.928;2023-03-26T04:36:38;98572.44;;;8.22;81.43
28510;BME280;15723;55.684;37.928;2023-03-26T04:39:08;98567.75;;;8.37;81.00
28510;BME280;15723;55.684;37.928;2023-03-26T04:42:06;98556.50;;;8.06;80.84
28510;BME280;15723;55.684;37.928;2023-03-26T04:44:45;98554.03;;;7.56;83.15
28510;BME280;15723;55.684;37.928;2023-03-26T04:47:12;98553.03;;;7.20;84.53
28510;BME280;15723;55.684;37.928;2023-03-26T04:49:44;98557.63;;;7.31;84.58
28510;BME280;15723;55.684;37.928;2023-03-26T04:52:13;98551.91;;;7.35;84.05
28510;BME280;15723;55.684;37.928;2023-03-26T04:54:58;98547.25;;;7.74;83.94
28510;BME280;15723;55.684;37.928;2023-03-26T04:57:33;98542.06;;;7.71;83.77
28510;BME280;15723;55.684;37.928;2023-03-26T05:00:06;98546.72;;;7.45;84.54
28510;BME280;15723;55.684;37.928;2023-03-26T05:02:41;98548.97;;;7.51;84.75
28510;BME280;15723;55.684;37.928;2023-03-26T05:05:08;98535.13;;;7.56;84.30
28510;BME280;15723;55.684;37.928;2023-03-26T05:07:35;98529.09;;;7.76;84.31
28510;BME280;15723;55.684;37.928;2023-03-26T05:10:01;98530.53;;;7.69;84.31
28510;BME280;15723;55.684;37.928;2023-03-26T05:12:43;98533.41;;;7.42;85.26
28510;BME280;15723;55.684;37.928;2023-03-26T05:15:14;98532.19;;;7.59;85.13
28510;BME280;15723;55.684;37.928;2023-03-26T05:18:05;98532.06;;;7.24;85.77
28510;BME280;15723;55.684;37.928;2023-03-26T05:20:42;98530.34;;;7.59;85.79
28510;BME280;15723;55.684;37.928;2023-03-26T05:23:12;98524.25;;;7.44;85.15
28510;BME280;15723;55.684;37.928;2023-03-26T05:25:41;98523.13;;;7.60;86.01
28510;BME280;15723;55.684;37.928;2023-03-26T05:28:16;98516.09;;;8.05;84.42
28510;BME280;15723;55.684;37.928;2023-03-26T05:31:05;98525.75;;;7.72;85.49
28510;BME280;15723;55.684;37.928;2023-03-26T05:33:36;98520.91;;;8.12;84.67
28510;BME280;15723;55.684;37.928;2023-03-26T05:36:11;98522.78;;;8.47;82.62
28510;BME280;15723;55.684;37.928;2023-03-26T05:38:45;98518.78;;;8.64;81.59
28510;BME280;15723;55.684;37.928;2023-03-26T05:41:37;98522.28;;;8.42;80.85
28510;BME280;15723;55.684;37.928;2023-03-26T05:44:04;98521.03;;;8.35;83.10
28510;BME280;15723;55.684;37.928;2023-03-26T05:46:31;98518.38;;;8.22;81.86
28510;BME280;15723;55.684;37.928;2023-03-26T05:48:57;98520.88;;;8.01;84.10
28510;BME280;15723;55.684;37.928;2023-03-26T05:51:23;98505.50;;;8.61;81.47
28510;BME280;15723;55.684;37.928;2023-03-26T05:54:09;98525.28;;;7.78;83.72
28510;BME280;15723;55.684;37.928;2023-03-26T05:56:55;98516.19;;;8.27;83.21
28510;BME280;15723;55.684;37.928;2023-03-26T05:59:40;98517.78;;;7.95;84.09
28510;BME280;15723;55.684;37.928;2023-03-26T06:02:25;98509.25;;;8.47;82.83
28510;BME280;15723;55.684;37.928;2023-03-26T06:05:32;98508.28;;;8.48;83.35
28510;BME280;15723;55.684;37.928;2023-03-26T06:08:24;98506.09;;;8.18;83.62
28510;BME280;15723;55.684;37.928;2023-03-26T06:10:57;98497.34;;;8.50;83.04
28510;BME280;15723;55.684;37.928;2023-03-26T06:13:23;98488.41;;;8.60;81.67
28510;BME280;15723;55.684;37.928;2023-03-26T06:15:51;98489.97;;;8.52;82.68
28510;BME280;15723;55.684;37.928;2023-03-26T06:18:25;98489.44;;;8.35;82.99
28510;BME280;15723;55.684;37.928;2023-03-26T06:21:14;98493.88;;;8.36;83.53
28510;BME280;15723;55.684;37.928;2023-03-26T06:23:48;98487.00;;;8.08;84.07
28510;BME280;15723;55.684;37.928;2023-03-26T06:26:34;98482.91;;;7.92;84.18
28510;BME280;15723;55.684;37.928;2023-03-26T06:29:39;98470.91;;;8.07;85.25
28510;BME280;15723;55.684;37.928;2023-03-26T06:32:17;98467.84;;;8.11;84.20
28510;BME280;15723;55.684;37.928;2023-03-26T06:34:47;98464.38;;;8.33;84.61
28510;BME280;15723;55.684;37.928;2023-03-26T06:37:13;98469.00;;;8.20;84.36
28510;BME280;15723;55.684;37.928;2023-03-26T06:39:41;98468.69;;;8.12;84.96
28510;BME280;15723;55.684;37.928;2023-03-26T06:42:18;98466.09;;;7.99;85.64
28510;BME280;15723;55.684;37.928;2023-03-26T06:45:20;98464.75;;;8.05;86.52
28510;BME280;15723;55.684;37.928;2023-03-26T06:48:15;98465.31;;;7.86;86.25
28510;BME280;15723;55.684;37.928;2023-03-26T06:50:59;98462.63;;;7.86;86.89
28510;BME280;15723;55.684;37.928;2023-03-26T06:53:46;98443.88;;;8.07;86.15
28510;BME280;15723;55.684;37.928;2023-03-26T06:56:30;98452.22;;;8.04;85.87
28510;BME280;15723;55.684;37.928;2023-03-26T06:59:19;98447.78;;;8.38;85.12
28510;BME280;15723;55.684;37.928;2023-03-26T07:02:04;98438.03;;;8.24;85.12
28510;BME280;15723;55.684;37.928;2023-03-26T07:04:48;98446.34;;;8.10;86.13
28510;BME280;15723;55.684;37.928;2023-03-26T07:07:33;98439.88;;;8.24;85.46
28510;BME280;15723;55.684;37.928;2023-03-26T07:10:22;98433.31;;;8.50;84.40
28510;BME280;15723;55.684;37.928;2023-03-26T07:13:03;98430.88;;;8.58;84.15
28510;BME280;15723;55.684;37.928;2023-03-26T07:15:47;98423.22;;;7.95;86.42
28510;BME280;15723;55.684;37.928;2023-03-26T07:18:28;98412.91;;;8.68;84.34
28510;BME280;15723;55.684;37.928;2023-03-26T07:20:54;98414.66;;;8.58;83.36
28510;BME280;15723;55.684;37.928;2023-03-26T07:23:22;98414.00;;;8.77;83.36
28510;BME280;15723;55.684;37.928;2023-03-26T07:25:56;98411.81;;;8.60;83.75
28510;BME280;15723;55.684;37.928;2023-03-26T07:28:46;98409.34;;;8.45;84.88
28510;BME280;15723;55.684;37.928;2023-03-26T07:31:44;98413.63;;;8.48;84.85
28510;BME280;15723;55.684;37.928;2023-03-26T07:46:31;98395.72;;;8.69;82.84
28510;BME280;15723;55.684;37.928;2023-03-26T07:49:19;98397.00;;;9.08;81.67
28510;BME280;15723;55.684;37.928;2023-03-26T07:52:04;98396.06;;;8.98;82.58
28510;BME280;15723;55.684;37.928;2023-03-26T07:54:54;98384.38;;;8.87;82.51
28510;BME280;15723;55.684;37.928;2023-03-26T08:00:39;98376.03;;;8.67;83.94
28510;BME280;15723;55.684;37.928;2023-03-26T08:06:00;98361.91;;;8.64;85.24
28510;BME280;15723;55.684;37.928;2023-03-26T08:09:12;98355.25;;;8.45;84.38
28510;BME280;15723;55.684;37.928;2023-03-26T08:12:16;98364.22;;;8.35;86.34
28510;BME280;15723;55.684;37.928;2023-03-26T08:22:45;98388.53;;;9.02;81.70
28510;BME280;15723;55.684;37.928;2023-03-26T08:27:39;98368.41;;;9.27;81.82
28510;BME280;15723;55.684;37.928;2023-03-26T08:32:33;98368.19;;;9.19;81.46
28510;BME280;15723;55.684;37.928;2023-03-26T08:34:59;98368.72;;;9.13;82.46
28510;BME280;15723;55.684;37.928;2023-03-26T08:37:26;98358.56;;;9.37;81.43
28510;BME280;15723;55.684;37.928;2023-03-26T08:39:53;98355.00;;;9.25;81.76
28510;BME280;15723;55.684;37.928;2023-03-26T08:50:28;98337.03;;;9.35;81.95
28510;BME280;15723;55.684;37.928;2023-03-26T09:00:48;98331.28;;;9.50;81.65
28510;BME280;15723;55.684;37.928;2023-03-26T09:04:13;98320.66;;;9.37;82.56
28510;BME280;15723;55.684;37.928;2023-03-26T09:13:52;98307.25;;;9.77;79.90
28510;BME280;15723;55.684;37.928;2023-03-26T09:22:16;98324.41;;;9.46;82.65
28510;BME280;15723;55.684;37.928;2023-03-26T09:24:56;98325.06;;;9.38;82.48
28510;BME280;15723;55.684;37.928;2023-03-26T09:27:52;98323.75;;;9.53;82.74
28510;BME280;15723;55.684;37.928;2023-03-26T09:33:15;98314.38;;;9.57;81.62
28510;BME280;15723;55.684;37.928;2023-03-26T09:35:54;98316.88;;;9.49;82.05
28510;BME280;15723;55.684;37.928;2023-03-26T09:38:39;98302.38;;;9.18;82.46
28510;BME280;15723;55.684;37.928;2023-03-26T09:51:38;98266.34;;;9.59;81.78
28510;BME280;15723;55.684;37.928;2023-03-26T09:59:17;98257.09;;;9.62;81.22
28510;BME280;15723;55.684;37.928;2023-03-26T10:04:35;98275.72;;;9.55;82.35
28510;BME280;15723;55.684;37.928;2023-03-26T10:09:50;98273.66;;;9.27;83.81
28510;BME280;15723;55.684;37.928;2023-03-26T10:12:34;98265.63;;;9.36;85.23
28510;BME280;15723;55.684;37.928;2023-03-26T10:20:31;98271.06;;;9.25;87.28
28510;BME280;15723;55.684;37.928;2023-03-26T10:25:42;98254.38;;;9.20;86.01
28510;BME280;15723;55.684;37.928;2023-03-26T10:28:24;98262.03;;;9.15;86.79
28510;BME280;15723;55.684;37.928;2023-03-26T10:33:21;98255.56;;;9.27;87.19
28510;BME280;15723;55.684;37.928;2023-03-26T10:38:26;98260.25;;;9.25;86.24
28510;BME280;15723;55.684;37.928;2023-03-26T10:48:57;98243.75;;;9.28;86.24
28510;BME280;15723;55.684;37.928;2023-03-26T10:54:10;98245.47;;;9.50;86.49
28510;BME280;15723;55.684;37.928;2023-03-26T10:56:43;98247.50;;;9.58;86.73
28510;BME280;15723;55.684;37.928;2023-03-26T10:59:11;98244.88;;;9.47;87.10
28510;BME280;15723;55.684;37.928;2023-03-26T11:04:53;98231.34;;;9.67;86.06
28510;BME280;15723;55.684;37.928;2023-03-26T11:07:03;98234.69;;;9.60;86.58
28510;BME280;15723;55.684;37.928;2023-03-26T11:09:45;98229.94;;;9.52;86.63
28510;BME280;15723;55.684;37.928;2023-03-26T11:15:06;98228.97;;;9.53;87.48
28510;BME280;15723;55.684;37.928;2023-03-26T11:17:40;98227.25;;;9.73;87.34
28510;BME280;15723;55.684;37.928;2023-03-26T11:20:22;98226.56;;;9.60;86.71
28510;BME280;15723;55.684;37.928;2023-03-26T11:33:23;98227.97;;;9.75;86.74
28510;BME280;15723;55.684;37.928;2023-03-26T11:35:51;98228.81;;;9.55;86.47
28510;BME280;15723;55.684;37.928;2023-03-26T11:40:46;98217.72;;;9.58;85.91
28510;BME280;15723;55.684;37.928;2023-03-26T11:43:46;98220.00;;;9.83;85.15
28510;BME280;15723;55.684;37.928;2023-03-26T11:46:16;98220.41;;;9.79;85.87
28510;BME280;15723;55.684;37.928;2023-03-26T11:48:44;98221.09;;;9.71;86.50
28510;BME280;15723;55.684;37.928;2023-03-26T11:51:16;98218.28;;;9.82;86.40
28510;BME280;15723;55.684;37.928;2023-03-26T11:53:44;98217.47;;;9.91;85.64
28510;BME280;15723;55.684;37.928;2023-03-26T12:01:25;98225.13;;;10.07;85.61
28510;BME280;15723;55.684;37.928;2023-03-26T12:03:56;98215.84;;;9.79;85.19
28510;BME280;15723;55.684;37.928;2023-03-26T12:06:24;98214.91;;;9.90;85.52
28510;BME280;15723;55.684;37.928;2023-03-26T12:08:52;98210.63;;;9.87;85.43
28510;BME280;15723;55.684;37.928;2023-03-26T12:11:18;98212.56;;;9.76;86.09
28510;BME280;15723;55.684;37.928;2023-03-26T12:13:50;98215.31;;;9.85;85.17
28510;BME280;15723;55.684;37.928;2023-03-26T12:16:18;98212.59;;;9.85;85.30
28510;BME280;15723;55.684;37.928;2023-03-26T12:18:45;98213.22;;;9.98;85.83
28510;BME280;15723;55.684;37.928;2023-03-26T12:21:16;98208.38;;;10.02;86.00
28510;BME280;15723;55.684;37.928;2023-03-26T12:23:45;98206.16;;;9.77;85.71
28510;BME280;15723;55.684;37.928;2023-03-26T12:26:17;98202.44;;;10.08;85.90
28510;BME280;15723;55.684;37.928;2023-03-26T12:28:46;98203.63;;;9.64;85.74
28510;BME280;15723;55.684;37.928;2023-03-26T12:31:12;98201.75;;;9.85;85.73
28510;BME280;15723;55.684;37.928;2023-03-26T12:33:49;98195.44;;;9.75;86.15
28510;BME280;15723;55.684;37.928;2023-03-26T12:36:21;98186.94;;;9.89;86.08
28510;BME280;15723;55.684;37.928;2023-03-26T12:38:50;98189.31;;;9.73;85.99
28510;BME280;15723;55.684;37.928;2023-03-26T12:41:17;98188.34;;;9.84;84.82
28510;BME280;15723;55.684;37.928;2023-03-26T12:43:44;98182.81;;;9.95;84.60
28510;BME280;15723;55.684;37.928;2023-03-26T12:48:53;98180.19;;;10.05;84.55
28510;BME280;15723;55.684;37.928;2023-03-26T12:51:29;98181.69;;;9.97;85.35
28510;BME280;15723;55.684;37.928;2023-03-26T12:54:06;98183.53;;;9.87;85.18
28510;BME280;15723;55.684;37.928;2023-03-26T12:57:04;98187.81;;;9.90;85.07
28510;BME280;15723;55.684;37.928;2023-03-26T13:07:24;98190.38;;;9.91;84.29
28510;BME280;15723;55.684;37.928;2023-03-26T13:10:01;98191.91;;;9.84;83.99
28510;BME280;15723;55.684;37.928;2023-03-26T13:12:39;98181.97;;;9.64;84.99
28510;BME280;15723;55.684;37.928;2023-03-26T13:26:11;98177.94;;;9.58;83.84
28510;BME280;15723;55.684;37.928;2023-03-26T13:31:15;98172.00;;;9.64;83.26
28510;BME280;15723;55.684;37.928;2023-03-26T13:33:49;98186.91;;;9.80;83.85
28510;BME280;15723;55.684;37.928;2023-03-26T13:43:45;98174.53;;;9.56;85.29
28510;BME280;15723;55.684;37.928;2023-03-26T13:48:55;98178.72;;;9.39;85.64
28510;BME280;15723;55.684;37.928;2023-03-26T13:53:54;98171.31;;;9.42;85.72
28510;BME280;15723;55.684;37.928;2023-03-26T13:56:26;98167.44;;;9.34;85.83
28510;BME280;15723;55.684;37.928;2023-03-26T13:58:59;98165.34;;;9.48;85.36
28510;BME280;15723;55.684;37.928;2023-03-26T14:01:30;98159.66;;;9.51;85.59
28510;BME280;15723;55.684;37.928;2023-03-26T14:04:09;98161.94;;;9.46;85.67
28510;BME280;15723;55.684;37.928;2023-03-26T14:06:46;98157.47;;;9.35;86.32
28510;BME280;15723;55.684;37.928;2023-03-26T14:11:59;98152.50;;;9.40;85.55
28510;BME280;15723;55.684;37.928;2023-03-26T14:14:33;98168.69;;;9.09;86.34
28510;BME280;15723;55.684;37.928;2023-03-26T14:17:08;98159.41;;;8.91;86.79
28510;BME280;15723;55.684;37.928;2023-03-26T14:25:03;98167.34;;;9.04;86.86
28510;BME280;15723;55.684;37.928;2023-03-26T14:35:29;98168.00;;;9.17;85.88
28510;BME280;15723;55.684;37.928;2023-03-26T14:40:29;98164.44;;;8.96;86.92
28510;BME280;15723;55.684;37.928;2023-03-26T14:53:29;98170.59;;;9.19;85.67
28510;BME280;15723;55.684;37.928;2023-03-26T14:56:14;98163.97;;;8.91;86.15
28510;BME280;15723;55.684;37.928;2023-03-26T15:01:24;98160.78;;;8.86;87.61
28510;BME280;15723;55.684;37.928;2023-03-26T15:09:09;98157.81;;;8.89;87.62
28510;BME280;15723;55.684;37.928;2023-03-26T15:11:48;98148.72;;;8.90;87.44
28510;BME280;15723;55.684;37.928;2023-03-26T15:14:35;98164.53;;;9.05;86.50
28510;BME280;15723;55.684;37.928;2023-03-26T15:17:13;98160.09;;;9.04;86.84
28510;BME280;15723;55.684;37.928;2023-03-26T15:22:39;98160.69;;;9.08;86.52
28510;BME280;15723;55.684;37.928;2023-03-26T15:33:38;98161.50;;;8.99;85.77
28510;BME280;15723;55.684;37.928;2023-03-26T15:36:31;98163.66;;;9.05;85.70
28510;BME280;15723;55.684;37.928;2023-03-26T15:41:48;98159.41;;;8.91;86.60
28510;BME280;15723;55.684;37.928;2023-03-26T15:44:21;98145.47;;;8.75;86.78
28510;BME280;15723;55.684;37.928;2023-03-26T15:46:55;98153.00;;;8.71;87.51
28510;BME280;15723;55.684;37.928;2023-03-26T15:52:50;98163.47;;;8.97;86.13
28510;BME280;15723;55.684;37.928;2023-03-26T15:57:15;98157.66;;;9.01;86.52
28510;BME280;15723;55.684;37.928;2023-03-26T15:59:53;98168.34;;;9.24;85.75
28510;BME280;15723;55.684;37.928;2023-03-26T16:15:48;98171.75;;;8.84;86.40
28510;BME280;15723;55.684;37.928;2023-03-26T16:18:38;98169.28;;;8.92;86.23
28510;BME280;15723;55.684;37.928;2023-03-26T16:21:04;98161.44;;;8.78;85.78
28510;BME280;15723;55.684;37.928;2023-03-26T16:26:21;98170.72;;;8.96;85.44
28510;BME280;15723;55.684;37.928;2023-03-26T16:31:18;98168.22;;;9.04;84.98
28510;BME280;15723;55.684;37.928;2023-03-26T16:33:55;98168.50;;;8.69;86.38
28510;BME280;15723;55.684;37.928;2023-03-26T16:36:34;98164.59;;;8.94;86.30
28510;BME280;15723;55.684;37.928;2023-03-26T16:44:05;98170.13;;;9.14;84.72
28510;BME280;15723;55.684;37.928;2023-03-26T16:54:42;98169.03;;;8.84;86.08
28510;BME280;15723;55.684;37.928;2023-03-26T17:02:32;98169.13;;;8.94;85.23
28510;BME280;15723;55.684;37.928;2023-03-26T17:05:19;98163.50;;;8.86;85.54
28510;BME280;15723;55.684;37.928;2023-03-26T17:07:52;98164.72;;;8.93;85.37
28510;BME280;15723;55.684;37.928;2023-03-26T17:13:02;98170.09;;;8.72;85.14
28510;BME280;15723;55.684;37.928;2023-03-26T17:20:28;98171.00;;;8.82;86.11
28510;BME280;15723;55.684;37.928;2023-03-26T17:28:26;98169.13;;;8.94;85.21
28510;BME280;15723;55.684;37.928;2023-03-26T17:31:04;98176.03;;;8.87;85.76
28510;BME280;15723;55.684;37.928;2023-03-26T17:33:38;98172.25;;;9.10;84.38
28510;BME280;15723;55.684;37.928;2023-03-26T17:41:06;98166.31;;;8.95;85.08
28510;BME280;15723;55.684;37.928;2023-03-26T17:43:34;98161.44;;;8.78;84.83
28510;BME280;15723;55.684;37.928;2023-03-26T17:46:01;98168.63;;;8.68;84.75
28510;BME280;15723;55.684;37.928;2023-03-26T17:48:29;98158.41;;;8.71;85.32
28510;BME280;15723;55.684;37.928;2023-03-26T17:51:05;98164.22;;;8.67;85.48
28510;BME280;15723;55.684;37.928;2023-03-26T17:53:39;98159.88;;;8.75;85.38
28510;BME280;15723;55.684;37.928;2023-03-26T17:56:11;98160.00;;;8.74;85.37
28510;BME280;15723;55.684;37.928;2023-03-26T17:58:40;98158.09;;;8.86;85.08
28510;BME280;15723;55.684;37.928;2023-03-26T18:01:31;98164.81;;;8.70;86.15
28510;BME280;15723;55.684;37.928;2023-03-26T18:04:00;98160.59;;;8.77;85.61
28510;BME280;15723;55.684;37.928;2023-03-26T18:09:11;98167.53;;;8.91;84.54
28510;BME280;15723;55.684;37.928;2023-03-26T18:14:44;98164.75;;;8.82;84.94
28510;BME280;15723;55.684;37.928;2023-03-26T18:17:03;98150.19;;;8.94;83.93
28510;BME280;15723;55.684;37.928;2023-03-26T18:19:30;98156.25;;;8.86;85.59
28510;BME280;15723;55.684;37.928;2023-03-26T18:22:23;98155.97;;;8.89;84.94
28510;BME280;15723;55.684;37.928;2023-03-26T18:24:50;98156.09;;;8.88;84.86
28510;BME280;15723;55.684;37.928;2023-03-26T18:27:18;98157.53;;;9.03;84.17
28510;BME280;15723;55.684;37.928;2023-03-26T18:32:25;98146.34;;;8.75;84.48
28510;BME280;15723;55.684;37.928;2023-03-26T18:34:59;98158.34;;;8.83;84.51
28510;BME280;15723;55.684;37.928;2023-03-26T18:37:30;98150.50;;;8.80;84.76